Time,TemperatureF,DewpointF,PressureIn,WindDirection,WindDirectionDegrees,WindSpeedMPH,WindSpeedGustMPH,Humidity,HourlyPrecipIn,Conditions,Clouds,dailyrainin,SoftwareType,DateUTC
2013-05-11 00:03:00,59.3,53.0,29.86,SW,226,3.0,-999.0,80,-99.99,,,0.00,weatherlink.com 1.10,2013-05-11 04:03:00,
2013-05-11 00:18:00,59.2,53.0,29.86,WSW,253,1.0,-999.0,81,-99.99,,,0.00,weatherlink.com 1.10,2013-05-11 04:18:00,
2013-05-11 00:33:00,58.7,53.0,29.86,SW,218,0.0,-999.0,81,-99.99,,,0.00,weatherlink.com 1.10,2013-05-11 04:33:00,
2013-05-11 00:48:00,58.4,53.0,29.85,WSW,247,1.0,-999.0,82,-99.99,,,0.00,weatherlink.com 1.10,2013-05-11 04:48:00,
2013-05-11 01:03:00,58.4,53.0,29.85,WSW,250,0.0,-999.0,82,-99.99,,,0.00,weatherlink.com 1.10,2013-05-11 05:03:00,
2013-05-11 01:18:00,58.3,53.0,29.84,WSW,246,0.0,-999.0,83,-99.99,,,0.00,weatherlink.com 1.10,2013-05-11 05:18:00,
2013-05-11 01:34:00,58.3,54.0,29.84,WSW,245,0.0,-999.0,84,-99.99,,,0.00,weatherlink.com 1.10,2013-05-11 05:34:00,
2013-05-11 01:49:00,58.3,54.0,29.84,WSW,238,1.0,-999.0,85,-99.99,,,0.00,weatherlink.com 1.10,2013-05-11 05:49:00,
2013-05-11 02:04:00,58.1,54.0,29.83,WSW,243,0.0,-999.0,86,-99.99,,,0.00,weatherlink.com 1.10,2013-05-11 06:04:00,
2013-05-11 02:19:00,58.0,54.0,29.82,WSW,249,4.0,-999.0,87,-99.99,,,0.00,weatherlink.com 1.10,2013-05-11 06:19:00,
2013-05-11 02:34:00,58.3,55.0,29.82,WSW,239,3.0,-999.0,89,-99.99,,,0.00,weatherlink.com 1.10,2013-05-11 06:34:00,
2013-05-11 02:49:00,58.6,56.0,29.81,SW,230,2.0,-999.0,90,-99.99,,,0.00,weatherlink.com 1.10,2013-05-11 06:49:00,
2013-05-11 03:04:00,58.7,56.0,29.81,WSW,243,4.0,-999.0,91,-99.99,,,0.00,weatherlink.com 1.10,2013-05-11 07:04:00,
2013-05-11 03:19:00,58.6,56.0,29.80,WSW,252,5.0,-999.0,91,-99.99,,,0.00,weatherlink.com 1.10,2013-05-11 07:19:00,
2013-05-11 03:34:00,58.1,56.0,29.80,SW,233,3.0,-999.0,91,-99.99,,,0.00,weatherlink.com 1.10,2013-05-11 07:34:00,
2013-05-11 03:49:00,57.8,56.0,29.80,SW,225,2.0,-999.0,92,-99.99,,,0.00,weatherlink.com 1.10,2013-05-11 07:49:00,
2013-05-11 04:04:00,57.5,55.0,29.79,SW,218,4.0,-999.0,92,-99.99,,,0.00,weatherlink.com 1.10,2013-05-11 08:04:00,
2013-05-11 04:19:00,57.2,55.0,29.78,WSW,242,7.0,-999.0,92,-99.99,,,0.00,weatherlink.com 1.10,2013-05-11 08:19:00,
2013-05-11 04:34:00,57.0,55.0,29.77,WSW,253,3.0,-999.0,92,-99.99,,,0.00,weatherlink.com 1.10,2013-05-11 08:34:00,
2013-05-11 04:49:00,56.9,55.0,29.78,SW,223,2.0,-999.0,92,-99.99,,,0.00,weatherlink.com 1.10,2013-05-11 08:49:00,
2013-05-11 05:04:00,56.6,54.0,29.77,SW,219,2.0,-999.0,92,-99.99,,,0.00,weatherlink.com 1.10,2013-05-11 09:04:00,
2013-05-11 05:19:00,56.5,54.0,29.77,SW,219,5.0,-999.0,92,-99.99,,,0.00,weatherlink.com 1.10,2013-05-11 09:19:00,
2013-05-11 05:34:00,56.6,55.0,29.77,WSW,242,6.0,-999.0,93,-99.99,,,0.00,weatherlink.com 1.10,2013-05-11 09:34:00,
2013-05-11 05:49:00,57.2,55.0,29.79,SW,232,0.0,-999.0,93,-99.99,,,0.00,weatherlink.com 1.10,2013-05-11 09:49:00,
2013-05-11 06:04:00,57.3,55.0,29.80,WSW,240,2.0,-999.0,92,-99.99,,,0.00,weatherlink.com 1.10,2013-05-11 10:04:00,
2013-05-11 06:19:00,57.5,55.0,29.78,SSW,211,0.0,-999.0,92,-99.99,,,0.00,weatherlink.com 1.10,2013-05-11 10:19:00,
2013-05-11 06:34:00,57.8,55.0,29.76,South,182,1.0,-999.0,90,-99.99,,,0.00,weatherlink.com 1.10,2013-05-11 10:34:00,
2013-05-11 06:49:00,58.1,55.0,29.75,WSW,243,2.0,-999.0,89,-99.99,,,0.00,weatherlink.com 1.10,2013-05-11 10:49:00,
2013-05-11 07:04:00,58.3,55.0,29.77,SW,214,6.0,-999.0,89,-99.99,,,0.00,weatherlink.com 1.10,2013-05-11 11:04:00,
2013-05-11 07:19:00,58.3,55.0,29.78,SW,226,3.0,-999.0,89,-99.99,,,0.00,weatherlink.com 1.10,2013-05-11 11:19:00,
2013-05-11 07:34:00,58.6,55.0,29.77,WSW,250,5.0,-999.0,89,-99.99,,,0.00,weatherlink.com 1.10,2013-05-11 11:34:00,
2013-05-11 07:50:00,59.0,56.0,29.77,WSW,242,6.0,-999.0,90,-99.99,,,0.01,weatherlink.com 1.10,2013-05-11 11:50:00,
2013-05-11 08:05:00,59.2,56.0,29.77,SW,236,6.0,-999.0,90,-99.99,,,0.01,weatherlink.com 1.10,2013-05-11 12:05:00,
2013-05-11 08:20:00,59.2,56.0,29.76,WSW,245,3.0,-999.0,89,-99.99,,,0.01,weatherlink.com 1.10,2013-05-11 12:20:00,
2013-05-11 08:35:00,59.2,56.0,29.76,West,259,6.0,-999.0,89,-99.99,,,0.01,weatherlink.com 1.10,2013-05-11 12:35:00,
2013-05-11 08:50:00,59.8,57.0,29.75,SW,219,4.0,-999.0,89,-99.99,,,0.01,weatherlink.com 1.10,2013-05-11 12:50:00,
2013-05-11 09:05:00,61.0,58.0,29.75,WSW,245,5.0,-999.0,88,-99.99,,,0.01,weatherlink.com 1.10,2013-05-11 13:05:00,
2013-05-11 09:20:00,62.1,58.0,29.75,WSW,245,4.0,-999.0,86,-99.99,,,0.01,weatherlink.com 1.10,2013-05-11 13:20:00,
2013-05-11 09:35:00,63.4,58.0,29.74,WSW,240,3.0,-999.0,83,-99.99,,,0.01,weatherlink.com 1.10,2013-05-11 13:35:00,
2013-05-11 09:50:00,64.0,58.0,29.74,SW,218,6.0,-999.0,81,-99.99,,,0.01,weatherlink.com 1.10,2013-05-11 13:50:00,
2013-05-11 10:05:00,64.5,58.0,29.73,SW,230,6.0,-999.0,80,-99.99,,,0.01,weatherlink.com 1.10,2013-05-11 14:05:00,
2013-05-11 10:20:00,64.7,58.0,29.74,West,260,8.0,-999.0,78,-99.99,,,0.01,weatherlink.com 1.10,2013-05-11 14:20:00,
2013-05-11 10:35:00,65.3,57.0,29.75,North,3,4.0,-999.0,75,-99.99,,,0.01,weatherlink.com 1.10,2013-05-11 14:35:00,
2013-05-11 10:50:00,66.1,57.0,29.74,WSW,239,6.0,-999.0,72,-99.99,,,0.01,weatherlink.com 1.10,2013-05-11 14:50:00,
2013-05-11 11:05:00,66.0,57.0,29.74,WSW,240,6.0,-999.0,72,-99.99,,,0.01,weatherlink.com 1.10,2013-05-11 15:05:00,
2013-05-11 11:20:00,66.0,56.0,29.75,West,262,11.0,-999.0,71,-99.99,,,0.01,weatherlink.com 1.10,2013-05-11 15:20:00,
2013-05-11 11:35:00,67.1,57.0,29.75,West,274,2.0,-999.0,69,-99.99,,,0.01,weatherlink.com 1.10,2013-05-11 15:35:00,
2013-05-11 11:50:00,67.3,58.0,29.75,WSW,257,6.0,-999.0,71,-99.99,,,0.01,weatherlink.com 1.10,2013-05-11 15:50:00,
2013-05-11 12:06:00,67.9,58.0,29.74,West,260,8.0,-999.0,71,-99.99,,,0.01,weatherlink.com 1.10,2013-05-11 16:06:00,
2013-05-11 12:21:00,67.1,57.0,29.73,WSW,247,10.0,-999.0,71,-99.99,,,0.01,weatherlink.com 1.10,2013-05-11 16:21:00,
2013-05-11 12:36:00,66.8,57.0,29.73,West,276,7.0,-999.0,72,-99.99,,,0.01,weatherlink.com 1.10,2013-05-11 16:36:00,
2013-05-11 12:51:00,67.9,57.0,29.72,WSW,252,2.0,-999.0,69,-99.99,,,0.01,weatherlink.com 1.10,2013-05-11 16:51:00,
2013-05-11 13:06:00,68.3,57.0,29.72,West,266,14.0,-999.0,67,-99.99,,,0.01,weatherlink.com 1.10,2013-05-11 17:06:00,
2013-05-11 13:21:00,64.2,59.0,29.74,WNW,286,6.0,-999.0,82,-99.99,,,0.04,weatherlink.com 1.10,2013-05-11 17:21:00,
2013-05-11 13:36:00,62.9,58.0,29.75,North,358,10.0,-999.0,84,-99.99,,,0.04,weatherlink.com 1.10,2013-05-11 17:36:00,
2013-05-11 13:51:00,62.4,58.0,29.75,NW,315,7.0,-999.0,84,-99.99,,,0.04,weatherlink.com 1.10,2013-05-11 17:51:00,
2013-05-11 14:06:00,62.9,58.0,29.74,SW,235,11.0,-999.0,83,-99.99,,,0.04,weatherlink.com 1.10,2013-05-11 18:06:00,
2013-05-11 14:21:00,63.5,58.0,29.73,West,263,5.0,-999.0,81,-99.99,,,0.04,weatherlink.com 1.10,2013-05-11 18:21:00,
2013-05-11 14:36:00,63.4,58.0,29.72,WSW,254,6.0,-999.0,83,-99.99,,,0.05,weatherlink.com 1.10,2013-05-11 18:36:00,
2013-05-11 14:51:00,62.9,58.0,29.73,WSW,242,7.0,-999.0,83,-99.99,,,0.05,weatherlink.com 1.10,2013-05-11 18:51:00,
2013-05-11 15:06:00,62.1,58.0,29.73,SW,222,13.0,-999.0,86,-99.99,,,0.05,weatherlink.com 1.10,2013-05-11 19:06:00,
2013-05-11 15:21:00,61.6,58.0,29.72,WSW,247,11.0,-999.0,88,-99.99,,,0.05,weatherlink.com 1.10,2013-05-11 19:21:00,
2013-05-11 15:36:00,61.8,58.0,29.70,West,260,6.0,-999.0,88,-99.99,,,0.05,weatherlink.com 1.10,2013-05-11 19:36:00,
2013-05-11 15:51:00,61.5,58.0,29.70,WSW,243,8.0,-999.0,87,-99.99,,,0.05,weatherlink.com 1.10,2013-05-11 19:51:00,
2013-05-11 16:06:00,61.3,57.0,29.69,WSW,243,3.0,-999.0,87,-99.99,,,0.05,weatherlink.com 1.10,2013-05-11 20:06:00,
2013-05-11 16:21:00,61.3,58.0,29.70,West,270,13.0,-999.0,88,-99.99,,,0.05,weatherlink.com 1.10,2013-05-11 20:21:00,
2013-05-11 16:36:00,61.0,58.0,29.69,WSW,257,7.0,-999.0,89,-99.99,,,0.06,weatherlink.com 1.10,2013-05-11 20:36:00,
2013-05-11 16:51:00,61.2,58.0,29.67,WSW,254,6.0,-999.0,90,-99.99,,,0.06,weatherlink.com 1.10,2013-05-11 20:51:00,
2013-05-11 17:06:00,61.3,58.0,29.68,WSW,242,6.0,-999.0,90,-99.99,,,0.06,weatherlink.com 1.10,2013-05-11 21:06:00,
2013-05-11 17:21:00,61.3,58.0,29.68,SW,228,4.0,-999.0,90,-99.99,,,0.06,weatherlink.com 1.10,2013-05-11 21:21:00,
2013-05-11 17:36:00,61.8,59.0,29.68,West,263,6.0,-999.0,89,-99.99,,,0.06,weatherlink.com 1.10,2013-05-11 21:36:00,
2013-05-11 17:51:00,62.0,59.0,29.68,WSW,242,6.0,-999.0,88,-99.99,,,0.06,weatherlink.com 1.10,2013-05-11 21:51:00,
2013-05-11 18:06:00,62.1,58.0,29.68,WSW,239,14.0,-999.0,87,-99.99,,,0.06,weatherlink.com 1.10,2013-05-11 22:06:00,
2013-05-11 18:21:00,62.1,58.0,29.69,SW,230,5.0,-999.0,87,-99.99,,,0.06,weatherlink.com 1.10,2013-05-11 22:21:00,
2013-05-11 18:36:00,62.1,58.0,29.69,SW,218,3.0,-999.0,87,-99.99,,,0.06,weatherlink.com 1.10,2013-05-11 22:36:00,
2013-05-11 18:51:00,62.0,58.0,29.70,West,259,0.0,-999.0,86,-99.99,,,0.06,weatherlink.com 1.10,2013-05-11 22:51:00,
2013-05-11 19:06:00,61.8,58.0,29.70,West,269,4.0,-999.0,87,-99.99,,,0.06,weatherlink.com 1.10,2013-05-11 23:06:00,
2013-05-11 19:21:00,61.8,58.0,29.69,WNW,284,5.0,-999.0,87,-99.99,,,0.06,weatherlink.com 1.10,2013-05-11 23:21:00,
2013-05-11 19:36:00,61.5,58.0,29.69,WSW,245,5.0,-999.0,89,-99.99,,,0.08,weatherlink.com 1.10,2013-05-11 23:36:00,
2013-05-11 19:51:00,60.7,58.0,29.68,WSW,240,0.0,-999.0,90,-99.99,,,0.08,weatherlink.com 1.10,2013-05-11 23:51:00,
2013-05-11 20:06:00,60.5,58.0,29.67,SW,233,3.0,-999.0,91,-99.99,,,0.13,weatherlink.com 1.10,2013-05-12 00:06:00,
2013-05-11 20:21:00,60.4,58.0,29.67,SW,229,3.0,-999.0,92,-99.99,,,0.36,weatherlink.com 1.10,2013-05-12 00:21:00,
2013-05-11 20:36:00,60.9,59.0,29.66,SW,230,4.0,-999.0,92,-99.99,,,0.42,weatherlink.com 1.10,2013-05-12 00:36:00,
2013-05-11 20:51:00,-999.0,-99.9,29.66,North,-999,-999.0,-999.0,-999,-99.99,,,0.42,weatherlink.com 1.10,2013-05-12 00:51:00,
2013-05-11 21:06:00,-999.0,-99.9,29.66,North,-999,-999.0,-999.0,-999,-99.99,,,0.42,weatherlink.com 1.10,2013-05-12 01:06:00,
2013-05-11 21:21:00,60.9,-99.9,29.67,SW,223,2.0,-999.0,-999,-99.99,,,0.53,weatherlink.com 1.10,2013-05-12 01:21:00,
2013-05-11 21:36:00,60.9,59.0,29.66,West,260,7.0,-999.0,94,-99.99,,,0.53,weatherlink.com 1.10,2013-05-12 01:36:00,
2013-05-11 21:51:00,60.9,59.0,29.66,WSW,245,2.0,-999.0,93,-99.99,,,0.53,weatherlink.com 1.10,2013-05-12 01:51:00,
2013-05-11 22:06:00,61.0,59.0,29.66,West,264,5.0,-999.0,93,-99.99,,,0.53,weatherlink.com 1.10,2013-05-12 02:06:00,
2013-05-11 22:21:00,61.2,59.0,29.66,WSW,249,6.0,-999.0,93,-99.99,,,0.53,weatherlink.com 1.10,2013-05-12 02:21:00,
2013-05-11 22:36:00,61.3,59.0,29.65,SW,236,5.0,-999.0,93,-99.99,,,0.53,weatherlink.com 1.10,2013-05-12 02:36:00,
2013-05-11 22:51:00,61.5,60.0,29.64,WSW,238,2.0,-999.0,93,-99.99,,,0.53,weatherlink.com 1.10,2013-05-12 02:51:00,
2013-05-11 23:06:00,61.6,60.0,29.64,SW,215,2.0,-999.0,93,-99.99,,,0.53,weatherlink.com 1.10,2013-05-12 03:06:00,
2013-05-11 23:21:00,61.6,60.0,29.64,SW,214,0.0,-999.0,93,-99.99,,,0.53,weatherlink.com 1.10,2013-05-12 03:21:00,
2013-05-11 23:36:00,61.5,60.0,29.63,WNW,301,0.0,-999.0,93,-99.99,,,0.54,weatherlink.com 1.10,2013-05-12 03:36:00,
2013-05-11 23:51:00,61.3,59.0,29.64,West,274,4.0,-999.0,93,-99.99,,,0.54,weatherlink.com 1.10,2013-05-12 03:51:00,